Tranbjerg, Denmark
Current Conditions -  °F | °C
As of 11:20 PM on Wednesday 28 Jan 2015 (Local Time) from EKAH Reporting Station
Light Rain Light Rain  
Wind Chill: 26°   Ceiling: 900
Heat Index: 36°   Visibility: 6mi
Dew Point: 32°   Wind: 15mph
Humidity: 87%   Direction: 250°WSW
Pressure: 28.85"   Gusts: NA
Location:  56.09°N, 10.12°E
Report Text: EKAH 282220Z AUTO 25013KT 210V280 9999NDV -RA BKN009///OVC027/// 02/00 Q0977
Loading
Personal Weather Stations






























Interactive Weather Map New forecast layout! Learn more

10-Day Weather Forecast

Advertisements
Track Severe Weather on mobile